Aérodrome :
LOGIN :

S'inscrire | Disclaimer

   EN    FR    IT 

 










Légende :    VFR   VFR Marginal   IFR   IFR Intensif   IFR Très Intensif
Visi : 
Plafond : 
>= 8 km
>= 3000ft
5 à 8 km
1000 à 3000 ft
1500m à 5 km
500 à 1000 ft
800 à 1500m
200 à 500 ft
< 800m
< 200 ft
Symboles :   Orages  Brouillard  Fortes neiges  Fortes précipitations  Vent > 20 kt
SIGMETs :   Divers  Orages  Givrage  Turbulence  Onde Orograph.  Cendres Volcan.






- Altitude de l'aérodrome : 686 ft
- Code IATA : URS


UUOK - Vostochny

DERNIER METAR :
  • 182300Z AUTO 33003MPS 9000 ///007/// 20/19 Q1014 RMK QBB220 QFE742/0989

METARs EXPIRÉS :
  • 182230Z AUTO 31002MPS 9000 NCD 19/19 Q1014 RMK QFE742/0989
  • 182200Z AUTO 31001MPS 9000 // NSC 20/20 Q1014 RMK QFE742/0989
  • 182130Z AUTO 30003MPS 9999 // NSC 20/19 Q1014 RMK QFE742/0989
  • 182100Z AUTO 32002MPS 9999 // NSC 20/20 Q1014 RMK QFE742/0989
  • 182030Z AUTO 01002MPS 320V040 9999 // ///008/// 21/20 Q1014 RMK QFE742/0989
  • 182000Z AUTO 36003MPS 9999 // NSC 21/20 Q1014 RMK QFE742/0989
  • 181930Z AUTO 33005MPS 9999 // ///008/// 21/20 Q1015 RMK QFE742/0990
  • 181900Z 31003MPS CAVOK 21/20 Q1015 R30/090060 NOSIG RMK QFE743/0990
  • 181830Z 33003MPS 9999 SCT010 20/20 Q1016 R30/090060 NOSIG RMK QFE743/0991

TAF TAF UUOK
Valide du 18 à 18h jusqu'au 19 à 03h UTC


181652Z 1818/1903 33003G08MPS 6000 BKN025



MET'MAP, la Météo Aéronautique d'un coup d'oeil ! - Copyright ORBIFLY Décembre 2007 - Disclaimer

ORBIFLY MET'MAP TEAM :

Programmation & Développement : Alexandra Zaïnal
Sur une idée originale de : Baudouin d'Aumeries
Soutien technique & logistique : Manuel Goepfert
Assistance : Marc-Olivier Méhu




SOURCES & CREDITS :

   NOAA